sensor_id;sensor_type;location;lat;lon;timestamp;pressure;altitude;pressure_sealevel;temperature;humidity
82160;BME280;71734;50.876;7.372;2024-01-30T00:00:41;100229.84;;;6.41;87.97
82160;BME280;71734;50.876;7.372;2024-01-30T00:03:09;100241.25;;;6.49;87.43
82160;BME280;71734;50.876;7.372;2024-01-30T00:05:35;100236.88;;;6.45;88.05
82160;BME280;71734;50.876;7.372;2024-01-30T00:08:02;100236.00;;;6.56;87.11
82160;BME280;71734;50.876;7.372;2024-01-30T00:10:28;100232.47;;;6.44;88.14
82160;BME280;71734;50.876;7.372;2024-01-30T00:12:56;100236.00;;;6.46;88.09
82160;BME280;71734;50.876;7.372;2024-01-30T00:15:22;100236.88;;;6.42;88.39
82160;BME280;71734;50.876;7.372;2024-01-30T00:17:49;100228.09;;;6.36;87.83
82160;BME280;71734;50.876;7.372;2024-01-30T00:20:19;100239.50;;;6.36;88.29
82160;BME280;71734;50.876;7.372;2024-01-30T00:22:46;100228.97;;;6.33;88.32
82160;BME280;71734;50.876;7.372;2024-01-30T00:25:13;100230.75;;;6.34;88.30
82160;BME280;71734;50.876;7.372;2024-01-30T00:27:39;100225.47;;;6.31;88.18
82160;BME280;71734;50.876;7.372;2024-01-30T00:30:07;100227.22;;;6.32;88.24
82160;BME280;71734;50.876;7.372;2024-01-30T00:32:34;100225.44;;;6.40;87.56
82160;BME280;71734;50.876;7.372;2024-01-30T00:35:00;100219.31;;;6.38;87.58
82160;BME280;71734;50.876;7.372;2024-01-30T00:37:28;100229.84;;;6.41;87.72
82160;BME280;71734;50.876;7.372;2024-01-30T00:39:56;100226.34;;;6.36;88.11
82160;BME280;71734;50.876;7.372;2024-01-30T00:42:22;100223.72;;;6.33;88.54
82160;BME280;71734;50.876;7.372;2024-01-30T00:44:50;100221.09;;;6.35;87.71
82160;BME280;71734;50.876;7.372;2024-01-30T00:47:16;100218.47;;;6.30;88.03
82160;BME280;71734;50.876;7.372;2024-01-30T00:49:44;100218.47;;;6.30;88.08
82160;BME280;71734;50.876;7.372;2024-01-30T00:52:11;100214.94;;;6.34;87.63
82160;BME280;71734;50.876;7.372;2024-01-30T00:54:39;100215.81;;;6.30;88.00
82160;BME280;71734;50.876;7.372;2024-01-30T00:57:05;100213.19;;;6.24;88.33
82160;BME280;71734;50.876;7.372;2024-01-30T00:59:32;100214.94;;;6.27;87.73
82160;BME280;71734;50.876;7.372;2024-01-30T01:01:58;100208.81;;;6.14;89.03
82160;BME280;71734;50.876;7.372;2024-01-30T01:04:25;100216.69;;;6.17;88.28
82160;BME280;71734;50.876;7.372;2024-01-30T01:06:52;100216.69;;;6.22;88.41
82160;BME280;71734;50.876;7.372;2024-01-30T01:09:18;100218.47;;;6.18;88.44
82160;BME280;71734;50.876;7.372;2024-01-30T01:11:46;100211.44;;;6.20;88.16
82160;BME280;71734;50.876;7.372;2024-01-30T01:14:13;100214.94;;;6.18;89.14
82160;BME280;71734;50.876;7.372;2024-01-30T01:16:39;100206.19;;;6.14;88.92
82160;BME280;71734;50.876;7.372;2024-01-30T01:19:06;100204.41;;;6.08;89.26
82160;BME280;71734;50.876;7.372;2024-01-30T01:21:32;100208.81;;;6.08;89.27
82160;BME280;71734;50.876;7.372;2024-01-30T01:23:59;100204.44;;;6.07;89.03
82160;BME280;71734;50.876;7.372;2024-01-30T01:26:25;100207.03;;;6.12;88.57
82160;BME280;71734;50.876;7.372;2024-01-30T01:28:53;100213.19;;;6.12;89.29
82160;BME280;71734;50.876;7.372;2024-01-30T01:31:20;100207.94;;;6.09;89.35
82160;BME280;71734;50.876;7.372;2024-01-30T01:33:49;100202.66;;;6.09;89.23
82160;BME280;71734;50.876;7.372;2024-01-30T01:36:16;100202.69;;;6.06;88.92
82160;BME280;71734;50.876;7.372;2024-01-30T01:38:42;100204.41;;;6.04;89.27
82160;BME280;71734;50.876;7.372;2024-01-30T01:41:09;100199.19;;;6.07;89.30
82160;BME280;71734;50.876;7.372;2024-01-30T01:43:35;100212.31;;;6.05;89.18
82160;BME280;71734;50.876;7.372;2024-01-30T01:46:05;100214.06;;;6.10;88.94
82160;BME280;71734;50.876;7.372;2024-01-30T01:48:32;100213.19;;;6.09;88.98
82160;BME280;71734;50.876;7.372;2024-01-30T01:50:59;100212.31;;;6.10;89.39
82160;BME280;71734;50.876;7.372;2024-01-30T01:53:26;100209.69;;;6.10;89.47
82160;BME280;71734;50.876;7.372;2024-01-30T01:55:54;100211.47;;;6.11;88.67
82160;BME280;71734;50.876;7.372;2024-01-30T01:58:21;100209.69;;;6.10;89.94
82160;BME280;71734;50.876;7.372;2024-01-30T02:00:49;100200.03;;;6.04;89.74
82160;BME280;71734;50.876;7.372;2024-01-30T02:03:18;100201.78;;;6.05;89.40
82160;BME280;71734;50.876;7.372;2024-01-30T02:05:46;100198.28;;;6.06;90.08
82160;BME280;71734;50.876;7.372;2024-01-30T02:08:13;100193.91;;;6.10;89.28
82160;BME280;71734;50.876;7.372;2024-01-30T02:10:39;100200.03;;;6.09;89.92
82160;BME280;71734;50.876;7.372;2024-01-30T02:13:06;100199.16;;;6.10;90.21
82160;BME280;71734;50.876;7.372;2024-01-30T02:15:32;100198.28;;;6.03;89.55
82160;BME280;71734;50.876;7.372;2024-01-30T02:17:58;100193.91;;;5.98;90.31
82160;BME280;71734;50.876;7.372;2024-01-30T02:20:30;100190.41;;;5.99;90.64
82160;BME280;71734;50.876;7.372;2024-01-30T02:22:58;100192.16;;;6.01;90.05
82160;BME280;71734;50.876;7.372;2024-01-30T02:25:31;100186.91;;;6.03;90.35
82160;BME280;71734;50.876;7.372;2024-01-30T02:27:58;100189.53;;;6.03;89.60
82160;BME280;71734;50.876;7.372;2024-01-30T02:30:25;100189.50;;;6.04;89.58
82160;BME280;71734;50.876;7.372;2024-01-30T02:32:51;100188.63;;;6.04;90.38
82160;BME280;71734;50.876;7.372;2024-01-30T02:35:18;100186.91;;;6.15;89.06
82160;BME280;71734;50.876;7.372;2024-01-30T02:37:44;100188.63;;;6.16;89.14
82160;BME280;71734;50.876;7.372;2024-01-30T02:40:12;100186.88;;;6.14;89.46
82160;BME280;71734;50.876;7.372;2024-01-30T02:42:39;100183.38;;;6.04;90.15
82160;BME280;71734;50.876;7.372;2024-01-30T02:45:07;100185.13;;;6.06;89.76
82160;BME280;71734;50.876;7.372;2024-01-30T02:47:34;100186.00;;;5.98;91.29
82160;BME280;71734;50.876;7.372;2024-01-30T02:50:01;100181.63;;;5.94;91.22
82160;BME280;71734;50.876;7.372;2024-01-30T02:52:27;100190.38;;;6.03;90.56
82160;BME280;71734;50.876;7.372;2024-01-30T02:54:54;100183.38;;;6.04;90.41
82160;BME280;71734;50.876;7.372;2024-01-30T02:57:21;100180.72;;;5.99;91.26
82160;BME280;71734;50.876;7.372;2024-01-30T02:59:48;100181.63;;;5.97;91.14
82160;BME280;71734;50.876;7.372;2024-01-30T03:02:15;100181.63;;;6.06;91.02
82160;BME280;71734;50.876;7.372;2024-01-30T03:04:41;100183.38;;;6.04;90.35
82160;BME280;71734;50.876;7.372;2024-01-30T03:07:08;100184.28;;;6.03;90.77
82160;BME280;71734;50.876;7.372;2024-01-30T03:09:34;100178.13;;;6.10;91.30
82160;BME280;71734;50.876;7.372;2024-01-30T03:12:01;100174.63;;;6.02;90.36
82160;BME280;71734;50.876;7.372;2024-01-30T03:14:30;100176.34;;;6.24;89.55
82160;BME280;71734;50.876;7.372;2024-01-30T03:16:57;100176.38;;;6.03;90.11
82160;BME280;71734;50.876;7.372;2024-01-30T03:19:23;100171.97;;;5.96;90.82
82160;BME280;71734;50.876;7.372;2024-01-30T03:21:50;100164.06;;;6.08;90.12
82160;BME280;71734;50.876;7.372;2024-01-30T03:24:17;100162.34;;;5.98;91.22
82160;BME280;71734;50.876;7.372;2024-01-30T03:26:43;100173.75;;;5.94;91.12
82160;BME280;71734;50.876;7.372;2024-01-30T03:29:10;100171.09;;;5.97;90.54
82160;BME280;71734;50.876;7.372;2024-01-30T03:31:38;100162.31;;;6.01;91.20
82160;BME280;71734;50.876;7.372;2024-01-30T03:34:05;100161.47;;;6.02;90.05
82160;BME280;71734;50.876;7.372;2024-01-30T03:36:31;100156.19;;;5.96;91.25
82160;BME280;71734;50.876;7.372;2024-01-30T03:38:59;100151.81;;;5.95;90.79
82160;BME280;71734;50.876;7.372;2024-01-30T03:41:26;100151.81;;;5.95;90.47
82160;BME280;71734;50.876;7.372;2024-01-30T03:43:52;100157.97;;;5.98;90.83
82160;BME280;71734;50.876;7.372;2024-01-30T03:46:19;100156.19;;;6.06;90.72
82160;BME280;71734;50.876;7.372;2024-01-30T03:48:47;100157.09;;;5.95;90.97
82160;BME280;71734;50.876;7.372;2024-01-30T03:51:13;100162.34;;;5.95;90.84
82160;BME280;71734;50.876;7.372;2024-01-30T03:53:41;100153.56;;;5.87;91.15
82160;BME280;71734;50.876;7.372;2024-01-30T03:56:08;100151.81;;;6.02;90.67
82160;BME280;71734;50.876;7.372;2024-01-30T03:58:34;100154.41;;;5.84;91.27
82160;BME280;71734;50.876;7.372;2024-01-30T04:01:01;100147.38;;;5.79;91.16
82160;BME280;71734;50.876;7.372;2024-01-30T04:03:28;100155.31;;;5.88;90.41
82160;BME280;71734;50.876;7.372;2024-01-30T04:05:55;100149.13;;;5.75;91.21
82160;BME280;71734;50.876;7.372;2024-01-30T04:08:22;100145.63;;;5.73;91.26
82160;BME280;71734;50.876;7.372;2024-01-30T04:10:48;100154.41;;;5.74;91.53
82160;BME280;71734;50.876;7.372;2024-01-30T04:13:15;100147.41;;;5.74;91.57
82160;BME280;71734;50.876;7.372;2024-01-30T04:15:41;100151.78;;;5.74;91.71
82160;BME280;71734;50.876;7.372;2024-01-30T04:18:08;100152.66;;;5.82;90.51
82160;BME280;71734;50.876;7.372;2024-01-30T04:20:34;100148.25;;;5.76;90.63
82160;BME280;71734;50.876;7.372;2024-01-30T04:23:02;100147.38;;;5.85;90.04
82160;BME280;71734;50.876;7.372;2024-01-30T04:25:29;100151.81;;;5.89;90.31
82160;BME280;71734;50.876;7.372;2024-01-30T04:27:55;100147.41;;;5.95;90.32
82160;BME280;71734;50.876;7.372;2024-01-30T04:30:22;100144.75;;;5.79;90.38
82160;BME280;71734;50.876;7.372;2024-01-30T04:32:48;100153.56;;;5.87;90.00
82160;BME280;71734;50.876;7.372;2024-01-30T04:35:15;100148.25;;;5.84;90.40
82160;BME280;71734;50.876;7.372;2024-01-30T04:37:41;100138.63;;;5.74;90.98
82160;BME280;71734;50.876;7.372;2024-01-30T04:40:10;100140.41;;;6.00;89.62
82160;BME280;71734;50.876;7.372;2024-01-30T04:42:36;100143.91;;;5.89;89.96
82160;BME280;71734;50.876;7.372;2024-01-30T04:45:03;100138.63;;;5.84;90.33
82160;BME280;71734;50.876;7.372;2024-01-30T04:47:30;100137.75;;;5.84;90.78
82160;BME280;71734;50.876;7.372;2024-01-30T04:49:56;100136.00;;;5.77;90.88
82160;BME280;71734;50.876;7.372;2024-01-30T04:52:23;100132.50;;;5.69;92.00
82160;BME280;71734;50.876;7.372;2024-01-30T04:54:49;100137.72;;;5.79;91.11
82160;BME280;71734;50.876;7.372;2024-01-30T04:57:17;100130.75;;;5.74;91.16
82160;BME280;71734;50.876;7.372;2024-01-30T04:59:43;100129.84;;;5.84;90.27
82160;BME280;71734;50.876;7.372;2024-01-30T05:02:10;100133.38;;;5.81;90.33
82160;BME280;71734;50.876;7.372;2024-01-30T05:04:36;100128.09;;;5.80;90.21
82160;BME280;71734;50.876;7.372;2024-01-30T05:07:03;100131.59;;;5.85;90.27
82160;BME280;71734;50.876;7.372;2024-01-30T05:09:30;100136.03;;;5.98;89.17
82160;BME280;71734;50.876;7.372;2024-01-30T05:11:56;100132.50;;;5.81;90.66
82160;BME280;71734;50.876;7.372;2024-01-30T05:14:24;100127.22;;;5.75;91.03
82160;BME280;71734;50.876;7.372;2024-01-30T05:16:51;100128.09;;;5.68;91.43
82160;BME280;71734;50.876;7.372;2024-01-30T05:19:17;100128.97;;;5.63;91.88
82160;BME280;71734;50.876;7.372;2024-01-30T05:21:44;100126.34;;;5.68;91.63
82160;BME280;71734;50.876;7.372;2024-01-30T05:24:10;100136.00;;;5.65;91.45
82160;BME280;71734;50.876;7.372;2024-01-30T05:26:37;100125.47;;;5.61;92.67
82160;BME280;71734;50.876;7.372;2024-01-30T05:29:04;100130.75;;;5.87;90.07
82160;BME280;71734;50.876;7.372;2024-01-30T05:31:32;100124.59;;;5.61;91.90
82160;BME280;71734;50.876;7.372;2024-01-30T05:33:59;100136.00;;;5.57;92.19
82160;BME280;71734;50.876;7.372;2024-01-30T05:36:25;100124.56;;;5.55;92.21
82160;BME280;71734;50.876;7.372;2024-01-30T05:38:52;100135.09;;;5.56;92.66
82160;BME280;71734;50.876;7.372;2024-01-30T05:41:19;100130.72;;;5.52;92.25
82160;BME280;71734;50.876;7.372;2024-01-30T05:43:46;100125.47;;;5.49;93.01
82160;BME280;71734;50.876;7.372;2024-01-30T05:46:13;100123.72;;;5.57;91.95
82160;BME280;71734;50.876;7.372;2024-01-30T05:48:40;100133.34;;;5.58;91.80
82160;BME280;71734;50.876;7.372;2024-01-30T05:51:07;100128.97;;;5.63;91.83
82160;BME280;71734;50.876;7.372;2024-01-30T05:53:34;100132.47;;;5.62;91.51
82160;BME280;71734;50.876;7.372;2024-01-30T05:56:01;100135.09;;;5.64;91.49
82160;BME280;71734;50.876;7.372;2024-01-30T05:58:28;100143.06;;;5.87;89.79
82160;BME280;71734;50.876;7.372;2024-01-30T06:00:56;100133.34;;;5.68;91.19
82160;BME280;71734;50.876;7.372;2024-01-30T06:03:22;100135.97;;;5.58;91.75
82160;BME280;71734;50.876;7.372;2024-01-30T06:05:50;100138.63;;;5.54;92.58
82160;BME280;71734;50.876;7.372;2024-01-30T06:08:17;100127.22;;;5.53;92.79
82160;BME280;71734;50.876;7.372;2024-01-30T06:10:43;100137.72;;;5.50;93.61
82160;BME280;71734;50.876;7.372;2024-01-30T06:13:10;100121.94;;;5.47;93.29
82160;BME280;71734;50.876;7.372;2024-01-30T06:15:36;100141.22;;;5.46;93.87
82160;BME280;71734;50.876;7.372;2024-01-30T06:18:04;100133.34;;;5.43;93.85
82160;BME280;71734;50.876;7.372;2024-01-30T06:20:30;100134.19;;;5.42;93.52
82160;BME280;71734;50.876;7.372;2024-01-30T06:22:58;100136.81;;;5.42;93.59
82160;BME280;71734;50.876;7.372;2024-01-30T06:25:25;100127.22;;;5.44;94.09
82160;BME280;71734;50.876;7.372;2024-01-30T06:27:51;100128.97;;;5.38;94.45
82160;BME280;71734;50.876;7.372;2024-01-30T06:30:18;100130.72;;;5.37;93.60
82160;BME280;71734;50.876;7.372;2024-01-30T06:32:45;100127.19;;;5.35;94.73
82160;BME280;71734;50.876;7.372;2024-01-30T06:35:12;100121.06;;;5.47;94.15
82160;BME280;71734;50.876;7.372;2024-01-30T06:37:38;100116.69;;;5.41;93.54
82160;BME280;71734;50.876;7.372;2024-01-30T06:40:07;100124.59;;;5.52;93.21
82160;BME280;71734;50.876;7.372;2024-01-30T06:42:34;100130.72;;;5.58;92.65
82160;BME280;71734;50.876;7.372;2024-01-30T06:45:01;100130.72;;;5.52;92.65
82160;BME280;71734;50.876;7.372;2024-01-30T06:47:27;100125.44;;;5.43;93.13
82160;BME280;71734;50.876;7.372;2024-01-30T06:49:56;100128.09;;;5.45;93.18
82160;BME280;71734;50.876;7.372;2024-01-30T06:52:22;100142.97;;;5.44;93.74
82160;BME280;71734;50.876;7.372;2024-01-30T06:54:49;100134.19;;;5.42;94.75
82160;BME280;71734;50.876;7.372;2024-01-30T06:57:17;100131.59;;;5.41;94.26
82160;BME280;71734;50.876;7.372;2024-01-30T06:59:43;100122.84;;;5.54;93.91
82160;BME280;71734;50.876;7.372;2024-01-30T07:02:10;100133.38;;;5.61;93.14
82160;BME280;71734;50.876;7.372;2024-01-30T07:04:36;100130.72;;;5.55;93.75
82160;BME280;71734;50.876;7.372;2024-01-30T07:07:04;100127.22;;;5.62;92.71
82160;BME280;71734;50.876;7.372;2024-01-30T07:09:37;100132.50;;;5.66;92.36
82160;BME280;71734;50.876;7.372;2024-01-30T07:12:04;100115.81;;;5.54;93.30
82160;BME280;71734;50.876;7.372;2024-01-30T07:14:32;100128.09;;;5.45;93.88
82160;BME280;71734;50.876;7.372;2024-01-30T07:16:59;100123.72;;;5.63;92.22
82160;BME280;71734;50.876;7.372;2024-01-30T07:19:25;100128.97;;;5.57;93.24
82160;BME280;71734;50.876;7.372;2024-01-30T07:21:52;100129.88;;;5.58;93.24
82160;BME280;71734;50.876;7.372;2024-01-30T07:24:18;100125.47;;;5.65;93.16
82160;BME280;71734;50.876;7.372;2024-01-30T07:26:45;100135.09;;;5.52;93.86
82160;BME280;71734;50.876;7.372;2024-01-30T07:29:11;100144.72;;;5.42;94.28
82160;BME280;71734;50.876;7.372;2024-01-30T07:31:39;100142.09;;;5.41;95.18
82160;BME280;71734;50.876;7.372;2024-01-30T07:34:06;100143.84;;;5.40;94.39
82160;BME280;71734;50.876;7.372;2024-01-30T07:36:32;100141.22;;;5.40;94.46
82160;BME280;71734;50.876;7.372;2024-01-30T07:38:59;100132.47;;;5.44;95.58
82160;BME280;71734;50.876;7.372;2024-01-30T07:41:25;100135.97;;;5.43;95.40
82160;BME280;71734;50.876;7.372;2024-01-30T07:43:52;100123.69;;;5.44;95.35
82160;BME280;71734;50.876;7.372;2024-01-30T07:46:18;100128.06;;;5.46;94.82
82160;BME280;71734;50.876;7.372;2024-01-30T07:48:46;100141.25;;;5.61;94.28
82160;BME280;71734;50.876;7.372;2024-01-30T07:51:13;100134.25;;;5.57;94.33
82160;BME280;71734;50.876;7.372;2024-01-30T07:53:40;100137.75;;;5.56;94.85
82160;BME280;71734;50.876;7.372;2024-01-30T07:56:07;100135.97;;;5.58;95.29
82160;BME280;71734;50.876;7.372;2024-01-30T07:58:33;100141.22;;;5.58;94.76
82160;BME280;71734;50.876;7.372;2024-01-30T08:01:00;100144.75;;;5.73;95.16
82160;BME280;71734;50.876;7.372;2024-01-30T08:03:27;100150.00;;;5.67;95.60
82160;BME280;71734;50.876;7.372;2024-01-30T08:05:54;100150.03;;;5.70;95.15
82160;BME280;71734;50.876;7.372;2024-01-30T08:08:21;100155.28;;;5.70;94.44
82160;BME280;71734;50.876;7.372;2024-01-30T08:10:48;100155.28;;;5.73;94.64
82160;BME280;71734;50.876;7.372;2024-01-30T08:13:15;100167.56;;;5.77;93.89
82160;BME280;71734;50.876;7.372;2024-01-30T08:15:41;100169.34;;;5.93;93.08
82160;BME280;71734;50.876;7.372;2024-01-30T08:18:08;100160.59;;;6.03;92.46
82160;BME280;71734;50.876;7.372;2024-01-30T08:20:34;100172.88;;;5.90;93.44
82160;BME280;71734;50.876;7.372;2024-01-30T08:23:02;100168.44;;;5.82;93.90
82160;BME280;71734;50.876;7.372;2024-01-30T08:25:29;100168.47;;;5.91;93.12
82160;BME280;71734;50.876;7.372;2024-01-30T08:27:55;100164.09;;;5.87;93.92
82160;BME280;71734;50.876;7.372;2024-01-30T08:30:22;100170.22;;;5.96;93.57
82160;BME280;71734;50.876;7.372;2024-01-30T08:32:48;100170.22;;;5.93;93.72
82160;BME280;71734;50.876;7.372;2024-01-30T08:35:15;100161.47;;;6.06;93.00
82160;BME280;71734;50.876;7.372;2024-01-30T08:37:42;100161.44;;;6.03;93.39
82160;BME280;71734;50.876;7.372;2024-01-30T08:40:10;100157.06;;;6.07;92.72
82160;BME280;71734;50.876;7.372;2024-01-30T08:42:36;100158.84;;;5.99;93.73
82160;BME280;71734;50.876;7.372;2024-01-30T08:45:04;100168.47;;;6.01;93.84
82160;BME280;71734;50.876;7.372;2024-01-30T08:47:31;100163.19;;;6.09;93.98
82160;BME280;71734;50.876;7.372;2024-01-30T08:49:58;100162.34;;;6.07;93.63
82160;BME280;71734;50.876;7.372;2024-01-30T08:52:25;100154.41;;;6.18;92.41
82160;BME280;71734;50.876;7.372;2024-01-30T08:54:51;100148.31;;;6.11;94.14
82160;BME280;71734;50.876;7.372;2024-01-30T08:57:19;100151.78;;;6.13;93.32
82160;BME280;71734;50.876;7.372;2024-01-30T08:59:46;100145.66;;;6.11;93.93
82160;BME280;71734;50.876;7.372;2024-01-30T09:02:13;100141.25;;;6.12;94.26
82160;BME280;71734;50.876;7.372;2024-01-30T09:04:41;100153.56;;;6.14;94.07
82160;BME280;71734;50.876;7.372;2024-01-30T09:07:08;100162.31;;;6.16;93.63
82160;BME280;71734;50.876;7.372;2024-01-30T09:09:35;100162.31;;;6.22;94.08
82160;BME280;71734;50.876;7.372;2024-01-30T09:12:05;100164.94;;;6.24;93.97
82160;BME280;71734;50.876;7.372;2024-01-30T09:14:35;100172.84;;;6.31;93.35
82160;BME280;71734;50.876;7.372;2024-01-30T09:17:02;100168.41;;;6.32;93.46
82160;BME280;71734;50.876;7.372;2024-01-30T09:19:29;100177.22;;;6.35;93.46
82160;BME280;71734;50.876;7.372;2024-01-30T09:21:56;100178.94;;;6.54;92.20
82160;BME280;71734;50.876;7.372;2024-01-30T09:24:22;100177.16;;;6.64;91.84
82160;BME280;71734;50.876;7.372;2024-01-30T09:26:51;100178.84;;;6.88;90.85
82160;BME280;71734;50.876;7.372;2024-01-30T09:29:19;100181.34;;;7.15;89.85
82160;BME280;71734;50.876;7.372;2024-01-30T09:31:49;100181.28;;;7.27;89.02
82160;BME280;71734;50.876;7.372;2024-01-30T09:34:15;100183.91;;;7.29;88.70
82160;BME280;71734;50.876;7.372;2024-01-30T09:36:42;100197.16;;;7.09;89.42
82160;BME280;71734;50.876;7.372;2024-01-30T09:39:08;100193.69;;;7.04;90.40
82160;BME280;71734;50.876;7.372;2024-01-30T09:41:51;100191.94;;;7.01;90.11
82160;BME280;71734;50.876;7.372;2024-01-30T09:44:22;100199.88;;;7.00;89.91
82160;BME280;71734;50.876;7.372;2024-01-30T09:46:50;100204.22;;;7.01;90.31
82160;BME280;71734;50.876;7.372;2024-01-30T09:49:17;100198.06;;;7.05;90.29
82160;BME280;71734;50.876;7.372;2024-01-30T09:51:44;100205.97;;;7.13;90.42
82160;BME280;71734;50.876;7.372;2024-01-30T09:54:13;100206.78;;;7.25;90.19
82160;BME280;71734;50.876;7.372;2024-01-30T09:56:40;100193.56;;;7.37;89.71
82160;BME280;71734;50.876;7.372;2024-01-30T09:59:07;100204.03;;;7.46;88.94
82160;BME280;71734;50.876;7.372;2024-01-30T10:01:35;100198.69;;;7.56;88.35
82160;BME280;71734;50.876;7.372;2024-01-30T10:04:04;100184.56;;;7.63;88.33
82160;BME280;71734;50.876;7.372;2024-01-30T10:06:31;100195.97;;;7.72;88.10
82160;BME280;71734;50.876;7.372;2024-01-30T10:08:57;100205.59;;;7.78;87.62
82160;BME280;71734;50.876;7.372;2024-01-30T10:11:24;100193.28;;;7.77;87.17
82160;BME280;71734;50.876;7.372;2024-01-30T10:13:51;100203.78;;;7.86;88.13
82160;BME280;71734;50.876;7.372;2024-01-30T10:16:17;100210.81;;;7.85;87.50
82160;BME280;71734;50.876;7.372;2024-01-30T10:18:44;100209.06;;;7.86;86.96
82160;BME280;71734;50.876;7.372;2024-01-30T10:21:12;100216.03;;;7.93;86.93
82160;BME280;71734;50.876;7.372;2024-01-30T10:23:39;100203.69;;;7.98;86.97
82160;BME280;71734;50.876;7.372;2024-01-30T10:26:07;100202.78;;;7.99;87.10
82160;BME280;71734;50.876;7.372;2024-01-30T10:28:33;100203.75;;;7.89;88.36
82160;BME280;71734;50.876;7.372;2024-01-30T10:31:00;100212.47;;;8.00;87.22
82160;BME280;71734;50.876;7.372;2024-01-30T10:33:27;100201.81;;;8.12;87.74
82160;BME280;71734;50.876;7.372;2024-01-30T10:35:55;100209.38;;;8.55;85.77
82160;BME280;71734;50.876;7.372;2024-01-30T10:38:29;100221.38;;;8.86;83.43
82160;BME280;71734;50.876;7.372;2024-01-30T10:40:56;100214.94;;;9.11;84.11
82160;BME280;71734;50.876;7.372;2024-01-30T10:43:24;100213.63;;;9.43;81.04
82160;BME280;71734;50.876;7.372;2024-01-30T10:45:57;100207.00;;;9.11;82.56
82160;BME280;71734;50.876;7.372;2024-01-30T10:48:29;100214.97;;;9.05;82.93
82160;BME280;71734;50.876;7.372;2024-01-30T10:50:58;100209.69;;;9.08;83.05
82160;BME280;71734;50.876;7.372;2024-01-30T10:53:28;100210.72;;;8.94;83.19
82160;BME280;71734;50.876;7.372;2024-01-30T10:55:56;100198.53;;;8.80;84.20
82160;BME280;71734;50.876;7.372;2024-01-30T10:58:24;100202.97;;;8.77;85.21
82160;BME280;71734;50.876;7.372;2024-01-30T11:00:51;100204.69;;;8.81;84.79
82160;BME280;71734;50.876;7.372;2024-01-30T11:03:18;100212.44;;;8.99;84.58
82160;BME280;71734;50.876;7.372;2024-01-30T11:05:49;100210.66;;;9.00;84.82
82160;BME280;71734;50.876;7.372;2024-01-30T11:08:22;100211.53;;;9.00;84.29
82160;BME280;71734;50.876;7.372;2024-01-30T11:10:55;100200.09;;;8.97;84.36
82160;BME280;71734;50.876;7.372;2024-01-30T11:13:22;100192.13;;;9.01;84.85
82160;BME280;71734;50.876;7.372;2024-01-30T11:15:48;100193.84;;;9.05;84.27
82160;BME280;71734;50.876;7.372;2024-01-30T11:18:22;100192.13;;;9.01;84.51
82160;BME280;71734;50.876;7.372;2024-01-30T11:20:49;100185.03;;;9.06;84.80
82160;BME280;71734;50.876;7.372;2024-01-30T11:23:16;100190.41;;;8.97;85.20
82160;BME280;71734;50.876;7.372;2024-01-30T11:25:43;100198.38;;;8.94;85.76
82160;BME280;71734;50.876;7.372;2024-01-30T11:28:14;100192.25;;;8.89;85.47
82160;BME280;71734;50.876;7.372;2024-01-30T11:30:41;100185.25;;;8.88;86.00
82160;BME280;71734;50.876;7.372;2024-01-30T11:33:09;100182.63;;;8.85;85.73
82160;BME280;71734;50.876;7.372;2024-01-30T11:35:38;100192.22;;;8.95;86.25
82160;BME280;71734;50.876;7.372;2024-01-30T11:38:09;100179.00;;;8.95;85.10
82160;BME280;71734;50.876;7.372;2024-01-30T11:40:38;100174.63;;;8.91;85.75
82160;BME280;71734;50.876;7.372;2024-01-30T11:43:05;100167.59;;;8.90;86.41
82160;BME280;71734;50.876;7.372;2024-01-30T11:45:35;100169.25;;;8.97;85.86
82160;BME280;71734;50.876;7.372;2024-01-30T11:48:02;100163.06;;;9.00;85.44
82160;BME280;71734;50.876;7.372;2024-01-30T11:50:28;100158.66;;;9.00;86.60
82160;BME280;71734;50.876;7.372;2024-01-30T11:52:55;100164.78;;;9.02;86.45
82160;BME280;71734;50.876;7.372;2024-01-30T11:55:23;100162.16;;;9.04;86.06
82160;BME280;71734;50.876;7.372;2024-01-30T11:57:50;100169.09;;;9.09;87.06
82160;BME280;71734;50.876;7.372;2024-01-30T12:00:19;100162.09;;;9.07;85.65
82160;BME280;71734;50.876;7.372;2024-01-30T12:02:50;100158.56;;;9.06;85.77
82160;BME280;71734;50.876;7.372;2024-01-30T12:05:21;100157.53;;;9.18;85.48
82160;BME280;71734;50.876;7.372;2024-01-30T12:07:48;100154.06;;;9.16;85.57
82160;BME280;71734;50.876;7.372;2024-01-30T12:10:15;100161.00;;;9.23;85.61
82160;BME280;71734;50.876;7.372;2024-01-30T12:12:44;100157.38;;;9.31;84.97
82160;BME280;71734;50.876;7.372;2024-01-30T12:15:55;100142.38;;;9.30;84.78
82160;BME280;71734;50.876;7.372;2024-01-30T12:18:22;100152.84;;;9.40;84.53
82160;BME280;71734;50.876;7.372;2024-01-30T12:20:56;100149.19;;;9.47;84.74
82160;BME280;71734;50.876;7.372;2024-01-30T12:23:24;100152.53;;;9.61;83.83
82160;BME280;71734;50.876;7.372;2024-01-30T12:25:51;100157.66;;;9.70;82.38
82160;BME280;71734;50.876;7.372;2024-01-30T12:28:18;100160.91;;;9.90;82.09
82160;BME280;71734;50.876;7.372;2024-01-30T12:30:44;100158.50;;;10.29;82.57
82160;BME280;71734;50.876;7.372;2024-01-30T12:33:16;100165.50;;;10.33;80.13
82160;BME280;71734;50.876;7.372;2024-01-30T12:35:47;100156.72;;;10.31;79.90
82160;BME280;71734;50.876;7.372;2024-01-30T12:38:13;100169.03;;;10.32;79.43
82160;BME280;71734;50.876;7.372;2024-01-30T12:40:40;100166.16;;;10.44;80.22
82160;BME280;71734;50.876;7.372;2024-01-30T12:43:06;100172.69;;;10.72;79.45
82160;BME280;71734;50.876;7.372;2024-01-30T12:45:33;100159.59;;;10.64;79.23
82160;BME280;71734;50.876;7.372;2024-01-30T12:47:59;100159.59;;;10.66;80.23
82160;BME280;71734;50.876;7.372;2024-01-30T12:50:26;100154.44;;;10.58;79.50
82160;BME280;71734;50.876;7.372;2024-01-30T12:52:54;100163.50;;;10.47;79.20
82160;BME280;71734;50.876;7.372;2024-01-30T12:55:21;100181.28;;;10.39;80.25
82160;BME280;71734;50.876;7.372;2024-01-30T12:57:47;100169.16;;;10.25;82.11
82160;BME280;71734;50.876;7.372;2024-01-30T13:00:14;100178.06;;;10.21;81.04